createdAt,value
2023-01-13T00:01:13.398Z,95344.78
2023-01-13T00:03:40.646Z,95339.44
2023-01-13T00:06:08.415Z,95327.59
2023-01-13T00:08:35.800Z,95323.88
2023-01-13T00:11:02.419Z,95309.03
2023-01-13T00:13:29.218Z,95325.31
2023-01-13T00:16:07.616Z,95331.84
2023-01-13T00:18:34.569Z,95337.44
2023-01-13T00:21:23.583Z,95325.34
2023-01-13T00:23:52.024Z,95324.09
2023-01-13T00:26:21.852Z,95310.38
2023-01-13T00:28:48.866Z,95324.28
2023-01-13T00:31:21.067Z,95320.44
2023-01-13T00:33:49.279Z,95324.47
2023-01-13T00:36:16.793Z,95318.66
2023-01-13T00:38:43.935Z,95316.59
2023-01-13T00:41:13.377Z,95315.88
2023-01-13T00:43:40.776Z,95299.13
2023-01-13T00:46:10.032Z,95303.28
2023-01-13T00:48:37.902Z,95303.38
2023-01-13T00:51:24.903Z,95309.97
2023-01-13T00:53:52.057Z,95324.06
2023-01-13T00:56:34.212Z,95321.63
2023-01-13T00:59:05.973Z,95311.34
2023-01-13T01:01:33.035Z,95302.66
2023-01-13T01:03:59.703Z,95314.16
2023-01-13T01:06:27.769Z,95305.19
2023-01-13T01:08:55.888Z,95307.50
2023-01-13T01:11:29.140Z,95295.69
2023-01-13T01:13:57.308Z,95278.16
2023-01-13T01:16:26.341Z,95271.66
2023-01-13T01:18:55.316Z,95269.13
2023-01-13T01:21:23.623Z,95275.63
2023-01-13T01:23:50.186Z,95272.53
2023-01-13T01:26:22.826Z,95288.94
2023-01-13T01:28:49.746Z,95297.78
2023-01-13T01:31:25.603Z,95295.91
2023-01-13T01:33:53.223Z,95298.03
2023-01-13T01:36:21.271Z,95281.06
2023-01-13T01:38:48.951Z,95288.50
2023-01-13T01:41:18.848Z,95291.94
2023-01-13T01:44:06.099Z,95295.50
2023-01-13T01:46:37.578Z,95290.91
2023-01-13T01:49:04.147Z,95295.19
2023-01-13T01:51:35.738Z,95295.91
2023-01-13T01:54:05.243Z,95301.97
2023-01-13T01:56:33.671Z,95307.72
2023-01-13T01:59:00.481Z,95309.47
2023-01-13T02:01:27.165Z,95305.59
2023-01-13T02:04:01.769Z,95294.78
2023-01-13T02:06:30.213Z,95303.72
2023-01-13T02:08:58.201Z,95301.72
2023-01-13T02:11:53.725Z,95302.84
2023-01-13T02:14:26.963Z,95289.22
2023-01-13T02:17:28.621Z,95297.97
2023-01-13T02:20:19.757Z,95290.63
2023-01-13T02:23:35.418Z,95292.38
2023-01-13T02:26:17.275Z,95285.59
2023-01-13T02:29:30.874Z,95282.38
2023-01-13T02:32:06.604Z,95280.25
2023-01-13T02:34:45.858Z,95286.41
2023-01-13T02:37:19.610Z,95272.81
2023-01-13T02:39:57.574Z,95279.59
2023-01-13T02:42:58.676Z,95274.78
2023-01-13T02:45:38.452Z,95276.53
2023-01-13T02:48:08.791Z,95270.56
2023-01-13T02:50:47.605Z,95276.03
2023-01-13T02:53:30.730Z,95267.91
2023-01-13T02:55:59.338Z,95267.88
2023-01-13T02:58:29.618Z,95270.69
2023-01-13T03:00:56.819Z,95269.59
2023-01-13T03:03:23.859Z,95263.94
2023-01-13T03:05:55.991Z,95253.72
2023-01-13T03:08:39.745Z,95260.59
2023-01-13T03:11:08.421Z,95270.47
2023-01-13T03:13:43.960Z,95267.22
2023-01-13T03:16:18.040Z,95264.91
2023-01-13T03:18:54.026Z,95261.28
2023-01-13T03:21:26.915Z,95257.47
2023-01-13T03:24:03.177Z,95256.75
2023-01-13T03:26:29.749Z,95249.28
2023-01-13T03:29:20.865Z,95256.88
2023-01-13T03:32:22.056Z,95250.72
2023-01-13T03:35:19.203Z,95259.78
2023-01-13T03:37:51.071Z,95242.97
2023-01-13T03:40:24.789Z,95240.75
2023-01-13T03:43:16.187Z,95244.06
2023-01-13T03:45:46.063Z,95242.88
2023-01-13T03:48:16.668Z,95245.03
2023-01-13T03:50:50.931Z,95239.22
2023-01-13T03:53:29.806Z,95241.47
2023-01-13T03:56:03.661Z,95241.03
2023-01-13T03:58:35.729Z,95233.78
2023-01-13T04:01:14.881Z,95253.78
2023-01-13T04:03:52.543Z,95241.81
2023-01-13T04:06:48.507Z,95251.72
2023-01-13T04:09:18.418Z,95244.84
2023-01-13T04:11:53.822Z,95228.50
2023-01-13T04:14:23.344Z,95240.75
2023-01-13T04:16:50.201Z,95245.91
2023-01-13T04:19:16.827Z,95230.78
2023-01-13T04:21:43.889Z,95253.16
2023-01-13T04:24:10.530Z,95256.56
2023-01-13T04:26:37.384Z,95257.16
2023-01-13T04:29:03.929Z,95253.72
2023-01-13T04:31:30.634Z,95264.25
2023-01-13T04:33:57.259Z,95256.75
2023-01-13T04:36:27.744Z,95244.28
2023-01-13T04:38:55.064Z,95234.63
2023-01-13T04:41:21.947Z,95254.72
2023-01-13T04:43:48.544Z,95241.53
2023-01-13T04:46:15.303Z,95246.63
2023-01-13T04:48:41.925Z,95248.66
2023-01-13T04:51:08.615Z,95248.94
2023-01-13T04:53:35.254Z,95262.38
2023-01-13T04:56:01.917Z,95242.31
2023-01-13T04:58:28.480Z,95259.28
2023-01-13T05:00:55.578Z,95247.09
2023-01-13T05:03:24.458Z,95241.28
2023-01-13T05:05:52.279Z,95252.66
2023-01-13T05:08:18.803Z,95252.25
2023-01-13T05:10:45.411Z,95242.78
2023-01-13T05:13:30.508Z,95240.59
2023-01-13T05:16:16.322Z,95224.31
2023-01-13T05:18:43.032Z,95227.38
2023-01-13T05:21:29.763Z,95231.16
2023-01-13T05:24:14.971Z,95239.88
2023-01-13T05:26:41.850Z,95237.91
2023-01-13T05:29:08.665Z,95235.97
2023-01-13T05:31:35.368Z,95233.34
2023-01-13T05:34:02.142Z,95222.59
2023-01-13T05:36:28.667Z,95227.44
2023-01-13T05:38:55.262Z,95235.34
2023-01-13T05:41:40.353Z,95233.75
2023-01-13T05:44:06.892Z,95239.06
2023-01-13T05:46:33.553Z,95237.16
2023-01-13T05:49:01.091Z,95235.56
2023-01-13T05:51:27.925Z,95236.97
2023-01-13T05:53:54.588Z,95246.50
2023-01-13T05:56:21.266Z,95229.81
2023-01-13T05:58:47.825Z,95243.53
2023-01-13T06:01:14.390Z,95250.75
2023-01-13T06:03:41.269Z,95245.81
2023-01-13T06:06:09.057Z,95252.22
2023-01-13T06:08:38.033Z,95245.00
2023-01-13T06:11:06.324Z,95256.91
2023-01-13T06:13:32.932Z,95251.69
2023-01-13T06:16:00.007Z,95257.22
2023-01-13T06:18:27.816Z,95256.03
2023-01-13T06:20:54.540Z,95252.13
2023-01-13T06:23:21.155Z,95251.91
2023-01-13T06:26:12.302Z,95251.53
2023-01-13T06:28:38.887Z,95260.69
2023-01-13T06:31:08.778Z,95255.19
2023-01-13T06:33:47.511Z,95260.41
2023-01-13T06:36:19.657Z,95247.72
2023-01-13T06:38:49.952Z,95261.09
2023-01-13T06:41:17.294Z,95258.59
2023-01-13T06:43:44.002Z,95253.25
2023-01-13T06:46:10.644Z,95261.72
2023-01-13T06:48:37.242Z,95252.16
2023-01-13T06:51:04.779Z,95264.91
2023-01-13T06:53:31.870Z,95258.44
2023-01-13T06:55:58.528Z,95266.13
2023-01-13T06:58:25.114Z,95262.88
2023-01-13T07:00:51.979Z,95268.53
2023-01-13T07:03:19.657Z,95265.22
2023-01-13T07:05:53.562Z,95265.22
2023-01-13T07:08:20.941Z,95265.13
2023-01-13T07:10:47.648Z,95263.41
2023-01-13T07:13:32.879Z,95265.38
2023-01-13T07:16:02.304Z,95271.78
2023-01-13T07:18:31.844Z,95269.56
2023-01-13T07:21:00.745Z,95274.28
2023-01-13T07:23:29.947Z,95281.97
2023-01-13T07:25:57.320Z,95285.13
2023-01-13T07:28:25.306Z,95292.06
2023-01-13T07:30:52.130Z,95284.78
2023-01-13T07:33:18.830Z,95262.97
2023-01-13T07:35:46.490Z,95289.31
2023-01-13T07:38:13.380Z,95281.09
2023-01-13T07:40:41.010Z,95290.59
2023-01-13T07:43:26.596Z,95279.72
2023-01-13T07:45:58.590Z,95284.22
2023-01-13T07:48:26.692Z,95279.97
2023-01-13T07:50:54.141Z,95287.19
2023-01-13T07:53:21.455Z,95288.50
2023-01-13T07:55:48.560Z,95299.13
2023-01-13T07:58:15.120Z,95287.75
2023-01-13T08:00:41.763Z,95289.06
2023-01-13T08:03:08.408Z,95295.53
2023-01-13T08:05:35.597Z,95299.38
2023-01-13T08:08:02.564Z,95305.72
2023-01-13T08:10:29.655Z,95301.09
2023-01-13T08:13:14.773Z,95294.78
2023-01-13T08:15:41.489Z,95302.91
2023-01-13T08:18:08.111Z,95307.19
2023-01-13T08:20:34.950Z,95317.22
2023-01-13T08:23:01.882Z,95309.75
2023-01-13T08:25:30.127Z,95312.09
2023-01-13T08:27:57.341Z,95304.16
2023-01-13T08:30:24.173Z,95298.16
2023-01-13T08:32:50.876Z,95296.75
2023-01-13T08:35:18.277Z,95303.75
2023-01-13T08:37:45.947Z,95306.06
2023-01-13T08:40:13.921Z,95318.38
2023-01-13T08:42:40.573Z,95316.59
2023-01-13T08:45:08.199Z,95334.56
2023-01-13T08:47:35.150Z,95318.53
2023-01-13T08:50:01.908Z,95330.91
2023-01-13T08:52:29.493Z,95329.53
2023-01-13T08:54:56.251Z,95331.94
2023-01-13T08:57:22.832Z,95335.03
2023-01-13T08:59:49.433Z,95337.53
2023-01-13T09:02:19.051Z,95346.44
2023-01-13T09:04:46.805Z,95358.94
2023-01-13T09:07:14.007Z,95361.69
2023-01-13T09:09:40.669Z,95364.06
2023-01-13T09:12:26.600Z,95361.97
2023-01-13T09:14:53.189Z,95364.03
2023-01-13T09:17:19.880Z,95370.31
2023-01-13T09:19:46.507Z,95363.03
2023-01-13T09:22:16.390Z,95370.31
2023-01-13T09:24:43.552Z,95368.41
2023-01-13T09:27:11.903Z,95368.91
2023-01-13T09:29:38.607Z,95371.88
2023-01-13T09:32:06.031Z,95361.63
2023-01-13T09:34:52.023Z,95367.91
2023-01-13T09:37:18.612Z,95363.16
2023-01-13T09:39:45.273Z,95374.44
2023-01-13T09:42:45.728Z,95373.47
2023-01-13T09:45:18.267Z,95371.56
2023-01-13T09:47:52.664Z,95368.28
2023-01-13T09:50:28.526Z,95373.34
2023-01-13T09:52:55.749Z,95365.84
2023-01-13T09:55:43.141Z,95378.22
2023-01-13T09:58:16.885Z,95380.97
2023-01-13T10:00:51.635Z,95381.06
2023-01-13T10:03:21.341Z,95387.13
2023-01-13T10:05:56.516Z,95377.13
2023-01-13T10:08:28.466Z,95392.94
2023-01-13T10:10:58.435Z,95384.78
2023-01-13T10:13:30.693Z,95381.94
2023-01-13T10:16:12.652Z,95383.75
2023-01-13T10:18:54.086Z,95378.97
2023-01-13T10:21:26.798Z,95388.69
2023-01-13T10:24:04.070Z,95375.19
2023-01-13T10:26:30.629Z,95383.44
2023-01-13T10:28:57.408Z,95383.69
2023-01-13T10:31:25.353Z,95380.63
2023-01-13T10:33:59.563Z,95372.31
2023-01-13T10:36:26.610Z,95367.53
2023-01-13T10:39:17.525Z,95365.88
2023-01-13T10:41:45.090Z,95360.53
2023-01-13T10:44:19.261Z,95359.59
2023-01-13T10:46:54.544Z,95363.63
2023-01-13T10:49:36.447Z,95364.28
2023-01-13T10:52:06.197Z,95360.94
2023-01-13T10:54:34.901Z,95366.25
2023-01-13T10:57:16.135Z,95357.53
2023-01-13T10:59:43.018Z,95373.19
2023-01-13T11:02:26.256Z,95359.25
2023-01-13T11:04:53.389Z,95357.91
2023-01-13T11:07:41.939Z,95352.50
2023-01-13T11:10:27.222Z,95340.56
2023-01-13T11:12:54.394Z,95347.66
2023-01-13T11:15:25.170Z,95336.38
2023-01-13T11:18:05.144Z,95343.16
2023-01-13T11:20:39.041Z,95341.22
2023-01-13T11:23:34.811Z,95345.59
2023-01-13T11:26:12.846Z,95353.47
2023-01-13T11:28:52.237Z,95359.31
2023-01-13T11:31:33.362Z,95383.41
2023-01-13T11:34:07.211Z,95366.88
2023-01-13T11:36:55.499Z,95387.03
2023-01-13T11:39:39.216Z,95385.75
2023-01-13T11:42:28.684Z,95387.72
2023-01-13T11:45:21.719Z,95400.47
2023-01-13T11:47:55.712Z,95394.06
2023-01-13T11:50:29.286Z,95402.91
2023-01-13T11:53:28.351Z,95411.88
2023-01-13T11:56:27.279Z,95410.66
2023-01-13T11:59:19.630Z,95411.94
2023-01-13T12:02:13.457Z,95399.38
2023-01-13T12:04:49.135Z,95409.16
2023-01-13T12:07:23.352Z,95413.09
2023-01-13T12:10:13.589Z,95408.25
2023-01-13T12:12:54.186Z,95401.41
2023-01-13T12:15:21.280Z,95409.56
2023-01-13T12:18:11.796Z,95379.56
2023-01-13T12:20:50.488Z,95379.66
2023-01-13T12:23:29.354Z,95361.75
2023-01-13T12:26:05.347Z,95370.69
2023-01-13T12:29:07.011Z,95383.03
2023-01-13T12:31:37.881Z,95378.72
2023-01-13T12:34:10.292Z,95385.03
2023-01-13T12:37:04.823Z,95387.00
2023-01-13T12:39:43.513Z,95369.38
2023-01-13T12:42:51.580Z,95366.22
2023-01-13T12:45:28.719Z,95365.44
2023-01-13T12:47:56.305Z,95373.28
2023-01-13T12:50:22.973Z,95365.03
2023-01-13T12:52:51.383Z,95365.94
2023-01-13T12:55:24.938Z,95375.94
2023-01-13T12:58:06.798Z,95378.13
2023-01-13T13:00:39.555Z,95374.31
2023-01-13T13:03:12.532Z,95371.47
2023-01-13T13:05:48.879Z,95368.97
2023-01-13T13:08:19.100Z,95372.72
2023-01-13T13:11:00.749Z,95382.56
2023-01-13T13:13:48.541Z,95399.91
2023-01-13T13:16:27.441Z,95394.50
2023-01-13T13:19:22.933Z,95385.22
2023-01-13T13:22:14.608Z,95386.91
2023-01-13T13:25:02.498Z,95378.69
2023-01-13T13:27:31.674Z,95373.88
2023-01-13T13:30:04.077Z,95386.19
2023-01-13T13:33:07.547Z,95384.00
2023-01-13T13:35:59.135Z,95394.03
2023-01-13T13:38:59.583Z,95400.56
2023-01-13T13:41:46.152Z,95393.59
2023-01-13T13:44:35.623Z,95392.09
2023-01-13T13:47:04.367Z,95392.41
2023-01-13T13:49:51.829Z,95397.34
2023-01-13T13:52:38.274Z,95410.25
2023-01-13T13:55:25.971Z,95412.66
2023-01-13T13:57:55.346Z,95405.22
2023-01-13T14:00:33.150Z,95413.47
2023-01-13T14:03:06.456Z,95400.03
2023-01-13T14:05:35.115Z,95411.72
2023-01-13T14:08:03.109Z,95400.44
2023-01-13T14:10:41.525Z,95399.31
2023-01-13T14:13:22.265Z,95413.09
2023-01-13T14:16:03.968Z,95411.16
2023-01-13T14:18:45.103Z,95401.31
2023-01-13T14:21:19.438Z,95393.03
2023-01-13T14:24:10.665Z,95412.44
2023-01-13T14:26:37.747Z,95402.09
2023-01-13T14:29:04.561Z,95403.81
2023-01-13T14:31:31.891Z,95410.38
2023-01-13T14:34:02.916Z,95411.94
2023-01-13T14:36:51.353Z,95400.28
2023-01-13T14:39:17.942Z,95413.41
2023-01-13T14:41:48.117Z,95400.28
2023-01-13T14:44:36.969Z,95411.19
2023-01-13T14:47:16.269Z,95409.81
2023-01-13T14:50:04.787Z,95408.59
2023-01-13T14:52:35.308Z,95419.53
2023-01-13T14:55:09.302Z,95425.34
2023-01-13T14:57:38.018Z,95426.88
2023-01-13T15:00:13.731Z,95432.53
2023-01-13T15:02:46.946Z,95444.75
2023-01-13T15:05:19.929Z,95437.72
2023-01-13T15:07:50.815Z,95453.50
2023-01-13T15:10:20.629Z,95443.53
2023-01-13T15:12:50.900Z,95455.00
2023-01-13T15:15:25.461Z,95487.25
2023-01-13T15:17:52.480Z,95484.81
2023-01-13T15:20:24.256Z,95491.59
2023-01-13T15:22:53.949Z,95480.38
2023-01-13T15:25:21.077Z,95475.91
2023-01-13T15:27:50.851Z,95486.88
2023-01-13T15:30:26.550Z,95488.56
2023-01-13T15:32:55.130Z,95471.28
2023-01-13T15:35:23.325Z,95481.41
2023-01-13T15:37:50.870Z,95467.66
2023-01-13T15:40:20.407Z,95476.81
2023-01-13T15:43:06.585Z,95494.59
2023-01-13T15:45:53.988Z,95505.06
2023-01-13T15:48:24.953Z,95501.34
2023-01-13T15:50:51.970Z,95508.59
2023-01-13T15:53:19.048Z,95509.88
2023-01-13T15:55:52.025Z,95516.09
2023-01-13T15:58:21.492Z,95526.09
2023-01-13T16:00:48.149Z,95517.66
2023-01-13T16:03:16.245Z,95534.78
2023-01-13T16:05:43.939Z,95522.00
2023-01-13T16:08:18.963Z,95535.28
2023-01-13T16:10:46.108Z,95517.38
2023-01-13T16:13:13.231Z,95535.75
2023-01-13T16:15:47.405Z,95538.66
2023-01-13T16:18:19.407Z,95545.91
2023-01-13T16:20:46.705Z,95539.19
2023-01-13T16:23:13.775Z,95538.41
2023-01-13T16:25:43.073Z,95538.97
2023-01-13T16:28:18.757Z,95552.13
2023-01-13T16:30:45.905Z,95548.41
2023-01-13T16:33:12.614Z,95554.59
2023-01-13T16:35:43.857Z,95570.72
2023-01-13T16:38:25.941Z,95569.34
2023-01-13T16:40:52.600Z,95594.97
2023-01-13T16:43:19.434Z,95595.75
2023-01-13T16:45:47.301Z,95600.22
2023-01-13T16:48:20.576Z,95612.22
2023-01-13T16:50:47.541Z,95609.69
2023-01-13T16:53:14.257Z,95621.06
2023-01-13T16:55:42.207Z,95624.66
2023-01-13T16:58:19.193Z,95618.78
2023-01-13T17:00:47.661Z,95629.31
2023-01-13T17:03:15.529Z,95631.59
2023-01-13T17:05:44.402Z,95646.56
2023-01-13T17:08:19.159Z,95653.50
2023-01-13T17:10:47.267Z,95658.75
2023-01-13T17:13:16.949Z,95654.06
2023-01-13T17:15:45.238Z,95662.41
2023-01-13T17:18:13.427Z,95661.66
2023-01-13T17:20:40.318Z,95685.97
2023-01-13T17:23:06.911Z,95682.09
2023-01-13T17:25:33.485Z,95694.84
2023-01-13T17:28:00.050Z,95694.19
2023-01-13T17:30:26.838Z,95691.38
2023-01-13T17:32:53.572Z,95706.16
2023-01-13T17:35:24.678Z,95693.41
2023-01-13T17:37:52.644Z,95695.00
2023-01-13T17:40:19.522Z,95700.75
2023-01-13T17:42:46.130Z,95692.75
2023-01-13T17:45:12.804Z,95700.06
2023-01-13T17:47:39.376Z,95700.66
2023-01-13T17:50:06.395Z,95699.06
2023-01-13T17:52:34.393Z,95697.84
2023-01-13T17:55:01.049Z,95685.53
2023-01-13T17:57:27.924Z,95696.69
2023-01-13T17:59:54.606Z,95687.59
2023-01-13T18:02:21.317Z,95695.34
2023-01-13T18:04:47.932Z,95691.38
2023-01-13T18:07:14.536Z,95694.19
2023-01-13T18:09:41.067Z,95705.31
2023-01-13T18:12:07.731Z,95708.69
2023-01-13T18:14:34.502Z,95717.53
2023-01-13T18:17:01.178Z,95713.66
2023-01-13T18:19:46.427Z,95726.09
2023-01-13T18:22:32.549Z,95715.78
2023-01-13T18:25:18.088Z,95743.72
2023-01-13T18:27:44.855Z,95726.66
2023-01-13T18:30:12.583Z,95748.72
2023-01-13T18:32:39.810Z,95764.66
2023-01-13T18:35:10.427Z,95774.47
2023-01-13T18:37:42.206Z,95778.19
2023-01-13T18:40:11.424Z,95778.53
2023-01-13T18:42:59.240Z,95781.22
2023-01-13T18:45:31.311Z,95778.34
2023-01-13T18:48:01.449Z,95770.72
2023-01-13T18:50:28.517Z,95772.41
2023-01-13T18:52:55.447Z,95781.28
2023-01-13T18:55:22.185Z,95772.84
2023-01-13T18:57:49.117Z,95797.44
2023-01-13T19:00:19.138Z,95796.91
2023-01-13T19:02:47.557Z,95796.72
2023-01-13T19:05:14.639Z,95805.28
2023-01-13T19:07:43.200Z,95817.53
2023-01-13T19:10:10.804Z,95811.69
2023-01-13T19:12:37.415Z,95814.97
2023-01-13T19:15:04.518Z,95806.69
2023-01-13T19:17:33.733Z,95824.13
2023-01-13T19:20:00.617Z,95827.50
2023-01-13T19:22:30.960Z,95828.94
2023-01-13T19:24:58.263Z,95825.88
2023-01-13T19:27:25.630Z,95832.72
2023-01-13T19:29:53.726Z,95824.16
2023-01-13T19:32:21.907Z,95825.31
2023-01-13T19:34:50.721Z,95833.25
2023-01-13T19:37:17.426Z,95834.59
2023-01-13T19:39:44.319Z,95829.03
2023-01-13T19:42:32.110Z,95825.75
2023-01-13T19:45:17.436Z,95836.78
2023-01-13T19:47:45.631Z,95842.63
2023-01-13T19:50:13.081Z,95842.84
2023-01-13T19:52:39.901Z,95844.72
2023-01-13T19:55:06.953Z,95847.66
2023-01-13T19:57:33.523Z,95851.38
2023-01-13T20:00:00.256Z,95863.66
2023-01-13T20:02:31.561Z,95857.84
2023-01-13T20:05:00.556Z,95838.69
2023-01-13T20:07:29.663Z,95843.78
2023-01-13T20:09:57.027Z,95830.81
2023-01-13T20:12:25.794Z,95835.81
2023-01-13T20:14:52.601Z,95839.28
2023-01-13T20:17:22.054Z,95843.97
2023-01-13T20:19:48.688Z,95856.00
2023-01-13T20:22:15.750Z,95859.25
2023-01-13T20:24:42.715Z,95852.66
2023-01-13T20:27:09.670Z,95857.25
2023-01-13T20:29:36.284Z,95857.69
2023-01-13T20:32:02.988Z,95862.91
2023-01-13T20:34:30.000Z,95861.88
2023-01-13T20:36:56.822Z,95859.31
2023-01-13T20:39:26.530Z,95863.59
2023-01-13T20:42:12.635Z,95860.78
2023-01-13T20:44:39.483Z,95874.63
2023-01-13T20:47:06.927Z,95876.97
2023-01-13T20:49:36.207Z,95876.13
2023-01-13T20:52:09.185Z,95863.75
2023-01-13T20:54:40.497Z,95856.63
2023-01-13T20:57:09.895Z,95872.81
2023-01-13T20:59:37.634Z,95857.00
2023-01-13T21:02:05.781Z,95871.06
2023-01-13T21:04:32.331Z,95875.03
2023-01-13T21:06:59.043Z,95889.50
2023-01-13T21:09:27.380Z,95895.31
2023-01-13T21:12:12.936Z,95892.84
2023-01-13T21:14:59.542Z,95889.69
2023-01-13T21:17:44.889Z,95880.75
2023-01-13T21:20:13.886Z,95872.28
2023-01-13T21:22:44.701Z,95861.59
2023-01-13T21:25:12.522Z,95854.25
2023-01-13T21:27:39.362Z,95857.50
2023-01-13T21:30:06.522Z,95840.06
2023-01-13T21:32:33.216Z,95852.03
2023-01-13T21:34:59.848Z,95847.16
2023-01-13T21:37:26.353Z,95842.59
2023-01-13T21:39:52.924Z,95843.00
2023-01-13T21:42:37.922Z,95838.34
2023-01-13T21:45:23.226Z,95839.28
2023-01-13T21:47:49.944Z,95833.53
2023-01-13T21:50:21.954Z,95835.59
2023-01-13T21:52:52.361Z,95837.34
2023-01-13T21:55:21.059Z,95844.19
2023-01-13T21:57:49.176Z,95842.56
2023-01-13T22:00:19.518Z,95847.44
2023-01-13T22:02:47.271Z,95849.41
2023-01-13T22:05:15.791Z,95856.34
2023-01-13T22:07:42.940Z,95862.91
2023-01-13T22:10:15.213Z,95869.31
2023-01-13T22:12:43.356Z,95885.97
2023-01-13T22:15:12.414Z,95867.44
2023-01-13T22:17:40.062Z,95871.78
2023-01-13T22:20:07.607Z,95875.69
2023-01-13T22:22:36.563Z,95878.03
2023-01-13T22:25:06.980Z,95885.78
2023-01-13T22:27:39.635Z,95891.09
2023-01-13T22:30:25.119Z,95885.84
2023-01-13T22:32:51.828Z,95865.75
2023-01-13T22:35:18.475Z,95882.66
2023-01-13T22:37:45.018Z,95886.78
2023-01-13T22:40:12.343Z,95893.22
2023-01-13T22:42:40.691Z,95888.09
2023-01-13T22:45:10.687Z,95892.81
2023-01-13T22:47:37.741Z,95896.59
2023-01-13T22:50:06.477Z,95894.97
2023-01-13T22:52:34.583Z,95885.31
2023-01-13T22:55:01.995Z,95888.56
2023-01-13T22:57:38.831Z,95885.63
2023-01-13T23:00:14.900Z,95868.34
2023-01-13T23:02:41.744Z,95881.06
2023-01-13T23:05:08.824Z,95888.44
2023-01-13T23:07:36.253Z,95872.75
2023-01-13T23:10:03.942Z,95882.16
2023-01-13T23:12:30.487Z,95880.63
2023-01-13T23:14:57.251Z,95873.28
2023-01-13T23:17:23.803Z,95884.53
2023-01-13T23:19:50.323Z,95887.53
2023-01-13T23:22:17.077Z,95884.81
2023-01-13T23:24:43.678Z,95869.63
2023-01-13T23:27:10.266Z,95881.47
2023-01-13T23:29:36.889Z,95888.00
2023-01-13T23:32:03.654Z,95884.09
2023-01-13T23:34:30.675Z,95884.50
2023-01-13T23:36:57.442Z,95894.34
2023-01-13T23:39:24.739Z,95895.00
2023-01-13T23:41:51.399Z,95894.81
2023-01-13T23:44:18.132Z,95891.59
2023-01-13T23:46:44.702Z,95889.03
2023-01-13T23:49:11.282Z,95883.47
2023-01-13T23:51:38.409Z,95875.75
2023-01-13T23:54:05.247Z,95868.25
2023-01-13T23:56:31.999Z,95866.47
2023-01-13T23:58:59.356Z,95867.72
